createdAt,value
2019-04-10T00:00:23.245Z,58.0000
2019-04-10T00:01:25.677Z,57.0000
2019-04-10T00:02:26.958Z,57.0000
2019-04-10T00:03:34.446Z,57.0000
2019-04-10T00:04:34.832Z,57.0000
2019-04-10T00:05:36.231Z,57.0000
2019-04-10T00:06:37.628Z,57.0000
2019-04-10T00:07:39.598Z,57.0000
2019-04-10T00:08:40.846Z,57.0000
2019-04-10T00:09:42.039Z,57.0000
2019-04-10T00:10:43.802Z,57.0000
2019-04-10T00:11:45.158Z,57.0000
2019-04-10T00:12:46.358Z,57.0000
2019-04-10T00:13:47.556Z,57.0000
2019-04-10T00:14:48.741Z,57.0000
2019-04-10T00:15:50.794Z,57.0000
2019-04-10T00:16:52.247Z,57.0000
2019-04-10T00:17:53.627Z,57.0000
2019-04-10T00:18:54.814Z,57.0000
2019-04-10T00:19:56.076Z,57.0000
2019-04-10T00:20:57.286Z,57.0000
2019-04-10T00:21:58.538Z,57.0000
2019-04-10T00:23:00.338Z,57.0000
2019-04-10T00:24:01.576Z,57.0000
2019-04-10T00:25:04.232Z,57.0000
2019-04-10T00:26:05.473Z,57.0000
2019-04-10T00:27:06.742Z,57.0000
2019-04-10T00:28:08.163Z,57.0000
2019-04-10T00:29:08.834Z,57.0000
2019-04-10T00:30:11.012Z,57.0000
2019-04-10T00:31:12.260Z,57.0000
2019-04-10T00:32:12.466Z,57.0000
2019-04-10T00:33:13.659Z,57.0000
2019-04-10T00:34:15.639Z,57.0000
2019-04-10T00:35:16.904Z,57.0000
2019-04-10T00:36:18.263Z,57.0000
2019-04-10T00:37:26.202Z,57.0000
2019-04-10T00:38:26.109Z,57.0000
2019-04-10T00:39:28.594Z,57.0000
2019-04-10T00:40:31.063Z,57.0000
2019-04-10T00:41:32.384Z,57.0000
2019-04-10T00:42:33.562Z,57.0000
2019-04-10T00:43:35.047Z,57.0000
2019-04-10T00:44:36.276Z,57.0000
2019-04-10T00:45:37.700Z,57.0000
2019-04-10T00:46:39.904Z,57.0000
2019-04-10T00:47:41.350Z,57.0000
2019-04-10T00:48:42.580Z,57.0000
2019-04-10T00:49:44.062Z,57.0000
2019-04-10T00:50:45.340Z,57.0000
2019-04-10T00:51:46.524Z,57.0000
2019-04-10T00:52:48.261Z,57.0000
2019-04-10T00:53:49.776Z,57.0000
2019-04-10T00:54:51.108Z,57.0000
2019-04-10T00:55:52.383Z,57.0000
2019-04-10T00:56:52.828Z,57.0000
2019-04-10T00:57:54.757Z,57.0000
2019-04-10T00:58:56.059Z,57.0000
2019-04-10T00:59:57.237Z,57.0000
2019-04-10T01:00:59.236Z,57.0000
2019-04-10T01:02:00.501Z,57.0000
2019-04-10T01:03:01.689Z,57.0000
2019-04-10T01:04:02.884Z,57.0000
2019-04-10T01:05:04.074Z,57.0000
2019-04-10T01:06:05.939Z,57.0000
2019-04-10T01:07:07.238Z,57.0000
2019-04-10T01:08:08.766Z,57.0000
2019-04-10T01:09:10.036Z,57.0000
2019-04-10T01:10:12.049Z,57.0000
2019-04-10T01:11:13.422Z,57.0000
2019-04-10T01:12:14.611Z,57.0000
2019-04-10T01:13:16.720Z,57.0000
2019-04-10T01:14:17.985Z,57.0000
2019-04-10T01:15:19.169Z,57.0000
2019-04-10T01:16:19.589Z,57.0000
2019-04-10T01:17:20.821Z,57.0000
2019-04-10T01:18:22.009Z,57.0000
2019-04-10T01:19:23.860Z,57.0000
2019-04-10T01:20:25.826Z,57.0000
2019-04-10T01:21:27.089Z,57.0000
2019-04-10T01:22:28.290Z,57.0000
2019-04-10T01:23:29.511Z,57.0000
2019-04-10T01:24:30.707Z,57.0000
2019-04-10T01:25:32.556Z,57.0000
2019-04-10T01:26:34.931Z,57.0000
2019-04-10T01:27:36.210Z,57.0000
2019-04-10T01:28:37.409Z,57.0000
2019-04-10T01:29:38.592Z,57.0000
2019-04-10T01:30:38.783Z,57.0000
2019-04-10T01:31:39.991Z,57.0000
2019-04-10T01:32:41.890Z,57.0000
2019-04-10T01:33:43.140Z,57.0000
2019-04-10T01:34:45.432Z,57.0000
2019-04-10T01:35:46.755Z,57.0000
2019-04-10T01:36:48.047Z,57.0000
2019-04-10T01:37:54.759Z,57.0000
2019-04-10T01:38:55.393Z,57.0000
2019-04-10T01:39:56.967Z,57.0000
2019-04-10T01:40:58.199Z,57.0000
2019-04-10T01:42:00.514Z,57.0000
2019-04-10T01:43:09.990Z,57.0000
2019-04-10T01:44:08.712Z,57.0000
2019-04-10T01:45:09.904Z,57.0000
2019-04-10T01:46:11.119Z,57.0000
2019-04-10T01:47:13.035Z,57.0000
2019-04-10T01:48:15.364Z,57.0000
2019-04-10T01:49:17.625Z,57.0000
2019-04-10T01:50:19.875Z,57.0000
2019-04-10T01:51:21.443Z,57.0000
2019-04-10T01:52:22.765Z,57.0000
2019-04-10T01:53:23.965Z,57.0000
2019-04-10T01:54:25.151Z,57.0000
2019-04-10T01:55:29.857Z,57.0000
2019-04-10T01:56:35.120Z,57.0000
2019-04-10T01:57:36.707Z,57.0000
2019-04-10T01:58:37.900Z,57.0000
2019-04-10T01:59:39.085Z,57.0000
2019-04-10T02:00:40.651Z,57.0000
2019-04-10T02:01:42.862Z,57.0000
2019-04-10T02:02:44.149Z,57.0000
2019-04-10T02:03:46.492Z,57.0000
2019-04-10T02:04:48.015Z,57.0000
2019-04-10T02:05:51.149Z,57.0000
2019-04-10T02:06:52.342Z,57.0000
2019-04-10T02:08:03.503Z,57.0000
2019-04-10T02:09:00.435Z,57.0000
2019-04-10T02:10:01.836Z,57.0000
2019-04-10T02:11:03.054Z,57.0000
2019-04-10T02:12:04.244Z,57.0000
2019-04-10T02:13:05.438Z,57.0000
2019-04-10T02:14:07.750Z,57.0000
2019-04-10T02:15:13.645Z,57.0000
2019-04-10T02:16:15.174Z,57.0000
2019-04-10T02:17:16.813Z,57.0000
2019-04-10T02:18:18.051Z,57.0000
2019-04-10T02:19:19.248Z,57.0000
2019-04-10T02:20:21.047Z,57.0000
2019-04-10T02:21:23.390Z,57.0000
2019-04-10T02:22:24.680Z,57.0000
2019-04-10T02:23:25.986Z,57.0000
2019-04-10T02:24:27.326Z,57.0000
2019-04-10T02:25:28.524Z,57.0000
2019-04-10T02:26:29.760Z,57.0000
2019-04-10T02:27:32.125Z,57.0000
2019-04-10T02:28:33.404Z,57.0000
2019-04-10T02:29:35.672Z,57.0000
2019-04-10T02:30:39.025Z,57.0000
2019-04-10T02:31:40.852Z,57.0000
2019-04-10T02:32:45.192Z,57.0000
2019-04-10T02:33:49.644Z,57.0000
2019-04-10T02:34:50.943Z,57.0000
2019-04-10T02:35:52.538Z,57.0000
2019-04-10T02:36:55.284Z,57.0000
2019-04-10T02:37:58.441Z,57.0000
2019-04-10T02:39:15.113Z,57.0000
2019-04-10T02:40:10.030Z,57.0000
2019-04-10T02:41:12.242Z,57.0000
2019-04-10T02:42:14.388Z,57.0000
2019-04-10T02:43:16.202Z,57.0000
2019-04-10T02:44:18.716Z,57.0000
2019-04-10T02:45:20.008Z,57.0000
2019-04-10T02:46:21.984Z,57.0000
2019-04-10T02:47:23.332Z,57.0000
2019-04-10T02:48:23.561Z,57.0000
2019-04-10T02:49:24.871Z,57.0000
2019-04-10T02:50:27.283Z,57.0000
2019-04-10T02:51:28.651Z,57.0000
2019-04-10T02:52:30.798Z,57.0000
2019-04-10T02:53:32.126Z,57.0000
2019-04-10T02:54:33.598Z,57.0000
2019-04-10T02:55:35.680Z,57.0000
2019-04-10T02:56:37.001Z,57.0000
2019-04-10T02:57:39.074Z,57.0000
2019-04-10T02:58:40.192Z,57.0000
2019-04-10T02:59:43.180Z,57.0000
2019-04-10T03:00:46.266Z,57.0000
2019-04-10T03:01:47.622Z,57.0000
2019-04-10T03:02:50.203Z,57.0000
2019-04-10T03:03:54.794Z,57.0000
2019-04-10T03:04:57.313Z,57.0000
2019-04-10T03:05:58.895Z,57.0000
2019-04-10T03:07:01.908Z,57.0000
2019-04-10T03:08:05.012Z,57.0000
2019-04-10T03:09:25.996Z,57.0000
2019-04-10T03:10:24.647Z,57.0000
2019-04-10T03:11:21.900Z,57.0000
2019-04-10T03:12:24.605Z,57.0000
2019-04-10T03:13:27.702Z,57.0000
2019-04-10T03:14:30.149Z,57.0000
2019-04-10T03:15:31.645Z,57.0000
2019-04-10T03:16:31.887Z,57.0000
2019-04-10T03:17:33.330Z,57.0000
2019-04-10T03:18:36.678Z,57.0000
2019-04-10T03:19:38.060Z,57.0000
2019-04-10T03:20:38.559Z,30.0000
2019-04-10T03:21:39.533Z,10.0000
2019-04-10T03:22:41.036Z,10.0000
2019-04-10T03:23:42.257Z,10.0000
2019-04-10T03:24:44.388Z,10.0000
2019-04-10T03:25:45.620Z,10.0000
2019-04-10T03:26:47.840Z,10.0000
2019-04-10T03:27:50.139Z,10.0000
2019-04-10T03:28:51.593Z,10.0000
2019-04-10T03:29:53.711Z,10.0000
2019-04-10T03:30:56.507Z,10.0000
2019-04-10T03:31:59.620Z,10.0000
2019-04-10T03:33:05.966Z,10.0000
2019-04-10T03:34:09.300Z,10.0000
2019-04-10T03:35:12.940Z,10.0000
2019-04-10T03:36:13.610Z,10.0000
2019-04-10T03:37:15.965Z,10.0000
2019-04-10T03:38:18.230Z,10.0000
2019-04-10T03:39:19.574Z,10.0000
2019-04-10T03:40:21.660Z,10.0000
2019-04-10T03:41:24.051Z,10.0000
2019-04-10T03:42:25.365Z,10.0000
2019-04-10T03:43:26.571Z,10.0000
2019-04-10T03:44:27.878Z,10.0000
2019-04-10T03:45:29.071Z,10.0000
2019-04-10T03:46:30.288Z,10.0000
2019-04-10T03:47:31.505Z,10.0000
2019-04-10T03:48:33.415Z,10.0000
2019-04-10T03:49:34.674Z,10.0000
2019-04-10T03:50:36.186Z,10.0000
2019-04-10T03:51:37.461Z,10.0000
2019-04-10T03:52:38.661Z,10.0000
2019-04-10T03:53:40.372Z,10.0000
2019-04-10T03:54:41.594Z,10.0000
2019-04-10T03:55:43.224Z,10.0000
2019-04-10T03:56:45.651Z,10.0000
2019-04-10T03:57:46.951Z,10.0000
2019-04-10T03:58:48.196Z,10.0000
2019-04-10T03:59:49.732Z,10.0000
2019-04-10T04:00:52.150Z,10.0000
2019-04-10T04:01:53.498Z,10.0000
2019-04-10T04:02:54.709Z,10.0000
2019-04-10T04:03:55.901Z,10.0000
2019-04-10T04:04:58.042Z,10.0000
2019-04-10T04:06:00.178Z,10.0000
2019-04-10T04:07:01.423Z,10.0000
2019-04-10T04:08:04.050Z,10.0000
2019-04-10T04:09:09.553Z,10.0000
2019-04-10T04:10:12.693Z,10.0000
2019-04-10T04:11:14.038Z,10.0000
2019-04-10T04:12:15.233Z,10.0000
2019-04-10T04:13:17.404Z,10.0000
2019-04-10T04:14:18.696Z,10.0000
2019-04-10T04:15:19.981Z,10.0000
2019-04-10T04:16:21.186Z,10.0000
2019-04-10T04:17:22.381Z,10.0000
2019-04-10T04:18:24.782Z,10.0000
2019-04-10T04:19:26.201Z,10.0000
2019-04-10T04:20:27.389Z,10.0000
2019-04-10T04:21:28.575Z,10.0000
2019-04-10T04:22:30.619Z,10.0000
2019-04-10T04:23:31.982Z,10.0000
2019-04-10T04:24:33.574Z,10.0000
2019-04-10T04:25:34.792Z,10.0000
2019-04-10T04:26:37.104Z,10.0000
2019-04-10T04:27:38.396Z,10.0000
2019-04-10T04:28:39.830Z,10.0000
2019-04-10T04:29:41.348Z,10.0000
2019-04-10T04:30:42.589Z,10.0000
2019-04-10T04:31:44.101Z,10.0000
2019-04-10T04:32:46.144Z,11.0000
2019-04-10T04:33:47.409Z,34.0000
2019-04-10T04:34:49.588Z,34.0000
2019-04-10T04:35:51.153Z,40.0000
2019-04-10T04:36:53.510Z,40.0000
2019-04-10T04:37:54.932Z,40.0000
2019-04-10T04:38:56.150Z,40.0000
2019-04-10T04:39:58.363Z,40.0000
2019-04-10T04:41:00.386Z,40.0000
2019-04-10T04:42:01.641Z,40.0000
2019-04-10T04:43:03.674Z,40.0000
2019-04-10T04:44:05.938Z,40.0000
2019-04-10T04:45:07.223Z,40.0000
2019-04-10T04:46:08.417Z,40.0000
2019-04-10T04:47:09.733Z,40.0000
2019-04-10T04:48:11.014Z,40.0000
2019-04-10T04:49:12.196Z,40.0000
2019-04-10T04:50:13.436Z,40.0000
2019-04-10T04:51:15.418Z,40.0000
2019-04-10T04:52:16.725Z,40.0000
2019-04-10T04:53:18.361Z,40.0000
2019-04-10T04:54:19.610Z,40.0000
2019-04-10T04:55:19.873Z,16.0000
2019-04-10T04:56:21.982Z,8.0000
2019-04-10T04:57:23.243Z,3.0000
2019-04-10T04:58:24.334Z,359.0000
2019-04-10T04:59:26.186Z,359.0000
2019-04-10T05:00:27.832Z,359.0000
2019-04-10T05:01:29.683Z,359.0000
2019-04-10T05:02:30.965Z,359.0000
2019-04-10T05:03:33.407Z,359.0000
2019-04-10T05:04:35.563Z,359.0000
2019-04-10T05:05:36.802Z,359.0000
2019-04-10T05:06:38.006Z,359.0000
2019-04-10T05:07:39.723Z,359.0000
2019-04-10T05:08:42.017Z,359.0000
2019-04-10T05:09:43.982Z,359.0000
2019-04-10T05:10:45.350Z,359.0000
2019-04-10T05:11:46.900Z,359.0000
2019-04-10T05:12:49.395Z,359.0000
2019-04-10T05:13:51.011Z,359.0000
2019-04-10T05:14:52.234Z,359.0000
2019-04-10T05:15:53.440Z,359.0000
2019-04-10T05:16:55.467Z,359.0000
2019-04-10T05:17:57.613Z,359.0000
2019-04-10T05:18:59.569Z,359.0000
2019-04-10T05:20:00.888Z,359.0000
2019-04-10T05:21:03.049Z,359.0000
2019-04-10T05:22:04.278Z,359.0000
2019-04-10T05:23:06.193Z,359.0000
2019-04-10T05:24:07.523Z,359.0000
2019-04-10T05:25:09.036Z,359.0000
2019-04-10T05:26:10.301Z,359.0000
2019-04-10T05:27:11.878Z,359.0000
2019-04-10T05:28:13.245Z,359.0000
2019-04-10T05:29:15.385Z,359.0000
2019-04-10T05:30:16.636Z,359.0000
2019-04-10T05:31:17.831Z,359.0000
2019-04-10T05:32:19.025Z,359.0000
2019-04-10T05:33:20.517Z,359.0000
2019-04-10T05:34:22.043Z,359.0000
2019-04-10T05:35:23.580Z,359.0000
2019-04-10T05:36:25.657Z,359.0000
2019-04-10T05:37:27.523Z,359.0000
2019-04-10T05:38:29.169Z,359.0000
2019-04-10T05:39:39.707Z,359.0000
2019-04-10T05:40:36.747Z,359.0000
2019-04-10T05:41:37.990Z,359.0000
2019-04-10T05:42:39.495Z,359.0000
2019-04-10T05:43:40.794Z,359.0000
2019-04-10T05:44:42.322Z,359.0000
2019-04-10T05:45:43.553Z,359.0000
2019-04-10T05:46:45.237Z,359.0000
2019-04-10T05:47:47.501Z,359.0000
2019-04-10T05:48:49.148Z,359.0000
2019-04-10T05:49:50.707Z,359.0000
2019-04-10T05:50:58.183Z,359.0000
2019-04-10T05:51:58.043Z,359.0000
2019-04-10T05:53:00.100Z,359.0000
2019-04-10T05:54:02.308Z,359.0000
2019-04-10T05:55:04.204Z,359.0000
2019-04-10T05:56:05.642Z,359.0000
2019-04-10T05:57:06.882Z,359.0000
2019-04-10T05:58:09.677Z,359.0000
2019-04-10T05:59:13.158Z,354.0000
2019-04-10T06:00:14.778Z,337.0000
2019-04-10T06:01:16.000Z,318.0000
2019-04-10T06:02:17.864Z,284.0000
2019-04-10T06:03:19.134Z,288.0000
2019-04-10T06:04:21.021Z,288.0000
2019-04-10T06:05:22.422Z,288.0000
2019-04-10T06:06:24.254Z,288.0000
2019-04-10T06:07:25.503Z,288.0000
2019-04-10T06:08:26.698Z,288.0000
2019-04-10T06:09:28.938Z,288.0000
2019-04-10T06:10:30.244Z,288.0000
2019-04-10T06:11:31.490Z,288.0000
2019-04-10T06:12:32.719Z,288.0000
2019-04-10T06:13:34.761Z,288.0000
2019-04-10T06:14:36.009Z,288.0000
2019-04-10T06:15:37.268Z,288.0000
2019-04-10T06:16:38.459Z,288.0000
2019-04-10T06:17:40.662Z,288.0000
2019-04-10T06:18:40.958Z,288.0000
2019-04-10T06:19:42.672Z,288.0000
2019-04-10T06:20:45.156Z,288.0000
2019-04-10T06:21:46.473Z,288.0000
2019-04-10T06:22:47.671Z,288.0000
2019-04-10T06:23:49.825Z,288.0000
2019-04-10T06:24:52.222Z,288.0000
2019-04-10T06:25:54.137Z,288.0000
2019-04-10T06:26:56.174Z,288.0000
2019-04-10T06:27:57.409Z,288.0000
2019-04-10T06:28:58.982Z,288.0000
2019-04-10T06:30:00.235Z,288.0000
2019-04-10T06:31:01.695Z,288.0000
2019-04-10T06:32:03.256Z,288.0000
2019-04-10T06:33:04.500Z,288.0000
2019-04-10T06:34:06.824Z,288.0000
2019-04-10T06:35:08.353Z,288.0000
2019-04-10T06:36:09.156Z,288.0000
2019-04-10T06:37:10.481Z,288.0000
2019-04-10T06:38:10.773Z,288.0000
2019-04-10T06:39:12.904Z,288.0000
2019-04-10T06:40:20.557Z,288.0000
2019-04-10T06:41:20.359Z,288.0000
2019-04-10T06:42:22.547Z,288.0000
2019-04-10T06:43:23.808Z,288.0000
2019-04-10T06:44:25.898Z,288.0000
2019-04-10T06:45:28.007Z,288.0000
2019-04-10T06:46:29.279Z,288.0000
2019-04-10T06:47:30.581Z,288.0000
2019-04-10T06:48:32.181Z,290.0000
2019-04-10T06:49:33.423Z,329.0000
2019-04-10T06:50:33.619Z,343.0000
2019-04-10T06:51:33.817Z,343.0000
2019-04-10T06:52:34.540Z,343.0000
2019-04-10T06:53:35.789Z,345.0000
2019-04-10T06:54:37.012Z,345.0000
2019-04-10T06:55:38.555Z,345.0000
2019-04-10T06:56:40.966Z,345.0000
2019-04-10T06:57:49.177Z,347.0000
2019-04-10T06:58:48.403Z,347.0000
2019-04-10T06:59:50.312Z,347.0000
2019-04-10T07:00:53.434Z,347.0000
2019-04-10T07:01:57.108Z,347.0000
2019-04-10T07:03:03.130Z,347.0000
2019-04-10T07:04:07.612Z,347.0000
2019-04-10T07:05:11.948Z,347.0000
2019-04-10T07:06:17.624Z,347.0000
2019-04-10T07:07:21.758Z,347.0000
2019-04-10T07:08:25.998Z,344.0000
2019-04-10T07:09:29.646Z,343.0000
2019-04-10T07:10:42.592Z,343.0000
2019-04-10T07:11:37.092Z,343.0000
2019-04-10T07:12:39.549Z,343.0000
2019-04-10T07:13:41.665Z,343.0000
2019-04-10T07:14:45.545Z,343.0000
2019-04-10T07:15:49.796Z,343.0000
2019-04-10T07:16:51.065Z,343.0000
2019-04-10T07:17:53.327Z,343.0000
2019-04-10T07:18:54.739Z,343.0000
2019-04-10T07:19:55.612Z,343.0000
2019-04-10T07:20:59.906Z,343.0000
2019-04-10T07:22:08.331Z,343.0000
2019-04-10T07:23:08.917Z,343.0000
2019-04-10T07:24:12.195Z,343.0000
2019-04-10T07:25:15.773Z,343.0000
2019-04-10T07:26:25.588Z,343.0000
2019-04-10T07:27:23.692Z,343.0000
2019-04-10T07:28:25.668Z,343.0000
2019-04-10T07:29:29.089Z,343.0000
2019-04-10T07:30:31.841Z,343.0000
2019-04-10T07:31:35.337Z,343.0000
2019-04-10T07:32:42.142Z,343.0000
2019-04-10T07:33:45.187Z,343.0000
2019-04-10T07:34:50.838Z,343.0000
2019-04-10T07:35:54.881Z,343.0000
2019-04-10T07:36:56.688Z,343.0000
2019-04-10T07:37:58.451Z,343.0000
2019-04-10T07:39:01.492Z,343.0000
2019-04-10T07:40:04.586Z,343.0000
2019-04-10T07:41:13.733Z,343.0000
2019-04-10T07:42:25.267Z,343.0000
2019-04-10T07:43:22.783Z,343.0000
2019-04-10T07:44:24.589Z,343.0000
2019-04-10T07:45:27.226Z,343.0000
2019-04-10T07:46:28.589Z,321.0000
2019-04-10T07:47:29.801Z,331.0000
2019-04-10T07:48:31.460Z,334.0000
2019-04-10T07:49:33.006Z,334.0000
2019-04-10T07:50:34.832Z,334.0000
2019-04-10T07:51:36.679Z,348.0000
2019-04-10T07:52:37.924Z,350.0000
2019-04-10T07:53:39.461Z,350.0000
2019-04-10T07:54:43.120Z,350.0000
2019-04-10T07:55:56.436Z,347.0000
2019-04-10T07:56:51.888Z,4.0000
2019-04-10T07:57:53.222Z,4.0000
2019-04-10T07:58:54.536Z,4.0000
2019-04-10T07:59:54.779Z,4.0000
2019-04-10T08:00:56.731Z,4.0000
2019-04-10T08:01:58.122Z,4.0000
2019-04-10T08:02:59.542Z,4.0000
2019-04-10T08:04:01.811Z,4.0000
2019-04-10T08:05:04.264Z,4.0000
2019-04-10T08:06:06.691Z,2.0000
2019-04-10T08:07:08.007Z,353.0000
2019-04-10T08:08:09.211Z,359.0000
2019-04-10T08:09:10.591Z,3.0000
2019-04-10T08:10:12.130Z,3.0000
2019-04-10T08:11:13.388Z,2.0000
2019-04-10T08:12:15.567Z,1.0000
2019-04-10T08:13:16.813Z,3.0000
2019-04-10T08:14:17.022Z,4.0000
2019-04-10T08:15:18.897Z,4.0000
2019-04-10T08:16:21.070Z,1.0000
2019-04-10T08:17:22.297Z,1.0000
2019-04-10T08:18:23.530Z,1.0000
2019-04-10T08:19:25.366Z,1.0000
2019-04-10T08:20:28.536Z,1.0000
2019-04-10T08:21:29.821Z,0.0000
2019-04-10T08:22:31.029Z,0.0000
2019-04-10T08:23:32.227Z,0.0000
2019-04-10T08:24:32.416Z,0.0000
2019-04-10T08:25:33.624Z,0.0000
2019-04-10T08:26:34.830Z,0.0000
2019-04-10T08:27:36.126Z,0.0000
2019-04-10T08:28:37.437Z,0.0000
2019-04-10T08:29:39.457Z,0.0000
2019-04-10T08:30:41.963Z,0.0000
2019-04-10T08:31:44.250Z,4.0000
2019-04-10T08:32:55.436Z,4.0000
2019-04-10T08:33:50.658Z,4.0000
2019-04-10T08:34:52.660Z,4.0000
2019-04-10T08:35:54.790Z,4.0000
2019-04-10T08:36:56.673Z,4.0000
2019-04-10T08:37:59.146Z,4.0000
2019-04-10T08:39:00.453Z,4.0000
2019-04-10T08:40:01.646Z,4.0000
2019-04-10T08:41:02.948Z,4.0000
2019-04-10T08:42:04.358Z,4.0000
2019-04-10T08:43:06.273Z,4.0000
2019-04-10T08:44:07.655Z,4.0000
2019-04-10T08:45:09.207Z,4.0000
2019-04-10T08:46:10.873Z,4.0000
2019-04-10T08:47:13.042Z,4.0000
2019-04-10T08:48:14.285Z,4.0000
2019-04-10T08:49:14.500Z,4.0000
2019-04-10T08:50:15.766Z,4.0000
2019-04-10T08:51:17.151Z,4.0000
2019-04-10T08:52:18.383Z,4.0000
2019-04-10T08:53:20.123Z,4.0000
2019-04-10T08:54:21.363Z,4.0000
2019-04-10T08:55:22.580Z,4.0000
2019-04-10T08:56:22.796Z,4.0000
2019-04-10T08:57:23.990Z,4.0000
2019-04-10T08:58:25.175Z,4.0000
2019-04-10T08:59:26.400Z,4.0000
2019-04-10T09:00:28.829Z,4.0000
2019-04-10T09:01:31.392Z,4.0000
2019-04-10T09:02:33.793Z,4.0000
2019-04-10T09:03:35.039Z,4.0000
2019-04-10T09:04:37.023Z,4.0000
2019-04-10T09:05:38.256Z,4.0000
2019-04-10T09:06:39.787Z,4.0000
2019-04-10T09:07:41.209Z,4.0000
2019-04-10T09:08:43.465Z,5.0000
2019-04-10T09:09:45.811Z,6.0000
2019-04-10T09:10:47.078Z,5.0000
2019-04-10T09:11:49.310Z,5.0000
2019-04-10T09:12:51.643Z,5.0000
2019-04-10T09:13:54.961Z,5.0000
2019-04-10T09:14:57.155Z,5.0000
2019-04-10T09:15:58.507Z,5.0000
2019-04-10T09:17:00.734Z,5.0000
2019-04-10T09:18:01.976Z,5.0000
2019-04-10T09:19:03.546Z,5.0000
2019-04-10T09:20:04.748Z,5.0000
2019-04-10T09:21:07.014Z,341.0000
2019-04-10T09:22:08.359Z,336.0000
2019-04-10T09:23:21.828Z,321.0000
2019-04-10T09:24:15.762Z,329.0000
2019-04-10T09:25:17.880Z,338.0000
2019-04-10T09:26:20.276Z,341.0000
2019-04-10T09:27:21.576Z,340.0000
2019-04-10T09:28:22.789Z,336.0000
2019-04-10T09:29:24.733Z,328.0000
2019-04-10T09:30:26.992Z,345.0000
2019-04-10T09:31:27.199Z,3.0000
2019-04-10T09:32:28.699Z,5.0000
2019-04-10T09:33:32.205Z,4.0000
2019-04-10T09:34:34.024Z,1.0000
2019-04-10T09:35:36.331Z,1.0000
2019-04-10T09:36:37.627Z,0.0000
2019-04-10T09:37:39.831Z,0.0000
2019-04-10T09:38:41.099Z,0.0000
2019-04-10T09:39:43.366Z,2.0000
2019-04-10T09:40:44.754Z,9.0000
2019-04-10T09:41:46.088Z,14.0000
2019-04-10T09:42:48.006Z,14.0000
2019-04-10T09:43:49.681Z,5.0000
2019-04-10T09:44:51.052Z,358.0000
2019-04-10T09:45:52.298Z,358.0000
2019-04-10T09:46:53.751Z,359.0000
2019-04-10T09:47:55.778Z,0.0000
2019-04-10T09:48:58.145Z,356.0000
2019-04-10T09:49:59.819Z,341.0000
2019-04-10T09:51:01.346Z,335.0000
2019-04-10T09:52:02.779Z,332.0000
2019-04-10T09:53:04.482Z,331.0000
2019-04-10T09:54:05.676Z,353.0000
2019-04-10T09:55:07.546Z,356.0000
2019-04-10T09:56:09.532Z,356.0000
2019-04-10T09:57:11.173Z,354.0000
2019-04-10T09:58:13.239Z,354.0000
2019-04-10T09:59:14.505Z,354.0000
2019-04-10T10:00:14.694Z,316.0000
2019-04-10T10:01:15.902Z,322.0000
2019-04-10T10:02:17.679Z,321.0000
2019-04-10T10:03:19.470Z,321.0000
2019-04-10T10:04:21.578Z,334.0000
2019-04-10T10:05:22.847Z,322.0000
2019-04-10T10:06:29.916Z,311.0000
2019-04-10T10:07:30.265Z,328.0000
2019-04-10T10:08:31.701Z,305.0000
2019-04-10T10:09:32.935Z,319.0000
2019-04-10T10:10:36.655Z,340.0000
2019-04-10T10:11:38.626Z,3.0000
2019-04-10T10:12:40.781Z,358.0000
2019-04-10T10:13:42.069Z,342.0000
2019-04-10T10:14:44.262Z,343.0000
2019-04-10T10:15:45.594Z,346.0000
2019-04-10T10:16:46.794Z,346.0000
2019-04-10T10:17:48.812Z,346.0000
2019-04-10T10:18:50.095Z,346.0000
2019-04-10T10:19:53.557Z,337.0000
2019-04-10T10:20:55.093Z,339.0000
2019-04-10T10:21:56.776Z,338.0000
2019-04-10T10:23:03.134Z,331.0000
2019-04-10T10:24:04.570Z,318.0000
2019-04-10T10:25:06.846Z,318.0000
2019-04-10T10:26:08.338Z,318.0000
2019-04-10T10:27:09.475Z,318.0000
2019-04-10T10:28:11.703Z,318.0000
2019-04-10T10:29:13.386Z,302.0000
2019-04-10T10:30:15.542Z,296.0000
2019-04-10T10:31:16.942Z,293.0000
2019-04-10T10:32:21.796Z,293.0000
2019-04-10T10:33:23.718Z,290.0000
2019-04-10T10:34:26.049Z,291.0000
2019-04-10T10:35:27.356Z,287.0000
2019-04-10T10:36:36.837Z,287.0000
2019-04-10T10:37:34.698Z,299.0000
2019-04-10T10:38:36.955Z,305.0000
2019-04-10T10:39:38.999Z,308.0000
2019-04-10T10:40:41.264Z,308.0000
2019-04-10T10:41:42.695Z,308.0000
2019-04-10T10:42:43.881Z,308.0000
2019-04-10T10:43:45.065Z,308.0000
2019-04-10T10:44:46.264Z,308.0000
2019-04-10T10:45:47.514Z,308.0000
2019-04-10T10:46:49.522Z,308.0000
2019-04-10T10:47:50.818Z,308.0000
2019-04-10T10:48:52.040Z,309.0000
2019-04-10T10:49:53.240Z,308.0000
2019-04-10T10:50:54.467Z,307.0000
2019-04-10T10:51:55.669Z,307.0000
2019-04-10T10:52:57.592Z,307.0000
2019-04-10T10:54:01.432Z,307.0000
2019-04-10T10:55:03.830Z,307.0000
2019-04-10T10:56:05.035Z,307.0000
2019-04-10T10:57:06.989Z,307.0000
2019-04-10T10:58:08.314Z,307.0000
2019-04-10T10:59:09.520Z,307.0000
2019-04-10T11:00:13.153Z,307.0000
2019-04-10T11:01:15.733Z,329.0000
2019-04-10T11:02:17.145Z,16.0000
2019-04-10T11:03:18.389Z,16.0000
2019-04-10T11:04:19.592Z,16.0000
2019-04-10T11:05:21.150Z,8.0000
2019-04-10T11:06:22.682Z,356.0000
2019-04-10T11:07:24.546Z,349.0000
2019-04-10T11:08:26.862Z,349.0000
2019-04-10T11:09:28.575Z,349.0000
2019-04-10T11:10:30.176Z,349.0000
2019-04-10T11:11:32.563Z,349.0000
2019-04-10T11:12:34.198Z,339.0000
2019-04-10T11:13:35.424Z,320.0000
2019-04-10T11:14:37.143Z,326.0000
2019-04-10T11:16:45.513Z,359.0000
2019-04-10T11:17:52.023Z,357.0000
2019-04-10T11:18:53.312Z,357.0000
2019-04-10T11:19:55.880Z,357.0000
2019-04-10T11:21:02.939Z,357.0000
2019-04-10T11:22:03.301Z,2.0000
2019-04-10T11:23:04.493Z,52.0000
2019-04-10T11:24:04.819Z,75.0000
2019-04-10T11:25:06.183Z,87.0000
2019-04-10T11:26:08.440Z,87.0000
2019-04-10T11:27:10.377Z,24.0000
2019-04-10T11:28:16.266Z,0.0000
2019-04-10T11:29:17.627Z,0.0000
2019-04-10T11:30:20.504Z,13.0000
2019-04-10T11:31:23.807Z,67.0000
2019-04-10T11:32:26.539Z,75.0000
2019-04-10T11:33:27.821Z,79.0000
2019-04-10T11:34:29.358Z,55.0000
2019-04-10T11:35:31.687Z,27.0000
2019-04-10T11:36:34.431Z,27.0000
2019-04-10T11:38:42.974Z,28.0000
2019-04-10T11:39:48.122Z,27.0000
2019-04-10T11:40:52.225Z,28.0000
2019-04-10T11:41:57.788Z,28.0000
2019-04-10T11:43:03.328Z,28.0000
2019-04-10T11:44:09.080Z,26.0000
2019-04-10T11:45:10.763Z,20.0000
2019-04-10T11:46:13.547Z,31.0000
2019-04-10T11:47:14.944Z,33.0000
2019-04-10T11:48:18.263Z,32.0000
2019-04-10T11:49:22.934Z,29.0000
2019-04-10T11:50:25.498Z,42.0000
2019-04-10T11:51:30.261Z,39.0000
2019-04-10T11:52:39.545Z,62.0000
2019-04-10T11:53:44.519Z,18.0000
2019-04-10T11:54:46.949Z,32.0000
2019-04-10T11:55:52.867Z,18.0000
2019-04-10T11:56:58.301Z,55.0000
2019-04-10T11:57:59.983Z,47.0000
2019-04-10T11:59:02.253Z,42.0000
2019-04-10T12:00:10.680Z,64.0000
2019-04-10T12:01:13.075Z,22.0000
2019-04-10T12:02:16.896Z,13.0000
2019-04-10T12:03:22.226Z,18.0000
2019-04-10T12:04:27.835Z,47.0000
2019-04-10T12:05:31.712Z,42.0000
2019-04-10T12:06:34.028Z,11.0000
2019-04-10T12:08:06.089Z,24.0000
2019-04-10T12:09:03.853Z,39.0000
2019-04-10T12:11:14.571Z,16.0000
2019-04-10T12:12:01.417Z,14.0000
2019-04-10T12:13:02.855Z,12.0000
2019-04-10T12:14:04.991Z,45.0000
2019-04-10T12:15:06.380Z,82.0000
2019-04-10T12:16:07.598Z,44.0000
2019-04-10T12:17:09.675Z,21.0000
2019-04-10T12:18:11.428Z,40.0000
2019-04-10T12:19:13.135Z,59.0000
2019-04-10T12:20:14.419Z,13.0000
2019-04-10T12:21:15.786Z,42.0000
2019-04-10T12:22:16.995Z,70.0000
2019-04-10T12:23:18.856Z,44.0000
2019-04-10T12:24:20.097Z,73.0000
2019-04-10T12:25:21.290Z,66.0000
2019-04-10T12:26:23.467Z,34.0000
2019-04-10T12:27:25.138Z,41.0000
2019-04-10T12:28:26.628Z,31.0000